sensor_id;sensor_type;location;lat;lon;timestamp;pressure;altitude;pressure_sealevel;temperature;humidity
70053;BME280;57398;52.032;4.376;2023-05-09T00:01:39;101615.00;;;13.17;100.00
70053;BME280;57398;52.032;4.376;2023-05-09T00:04:29;101616.16;;;13.21;100.00
70053;BME280;57398;52.032;4.376;2023-05-09T00:07:18;101615.50;;;13.26;100.00
70053;BME280;57398;52.032;4.376;2023-05-09T00:10:08;101614.50;;;13.27;100.00
70053;BME280;57398;52.032;4.376;2023-05-09T00:12:56;101603.25;;;13.26;100.00
70053;BME280;57398;52.032;4.376;2023-05-09T00:15:45;101608.09;;;13.29;100.00
70053;BME280;57398;52.032;4.376;2023-05-09T00:18:34;101599.25;;;13.30;100.00
70053;BME280;57398;52.032;4.376;2023-05-09T00:21:22;101598.00;;;13.33;100.00
70053;BME280;57398;52.032;4.376;2023-05-09T00:24:10;101600.63;;;13.33;100.00
70053;BME280;57398;52.032;4.376;2023-05-09T00:26:59;101589.19;;;13.34;100.00
70053;BME280;57398;52.032;4.376;2023-05-09T00:29:48;101587.34;;;13.34;100.00
70053;BME280;57398;52.032;4.376;2023-05-09T00:32:36;101591.91;;;13.39;100.00
70053;BME280;57398;52.032;4.376;2023-05-09T00:35:26;101582.28;;;13.39;100.00
70053;BME280;57398;52.032;4.376;2023-05-09T00:38:14;101584.47;;;13.43;100.00
70053;BME280;57398;52.032;4.376;2023-05-09T00:41:02;101582.44;;;13.45;100.00
70053;BME280;57398;52.032;4.376;2023-05-09T00:43:52;101570.59;;;13.42;100.00
70053;BME280;57398;52.032;4.376;2023-05-09T00:46:40;101578.34;;;13.49;100.00
70053;BME280;57398;52.032;4.376;2023-05-09T00:49:28;101572.34;;;13.48;100.00
70053;BME280;57398;52.032;4.376;2023-05-09T00:52:17;101579.16;;;13.49;100.00
70053;BME280;57398;52.032;4.376;2023-05-09T00:55:09;101566.34;;;13.48;100.00
70053;BME280;57398;52.032;4.376;2023-05-09T00:57:58;101575.53;;;13.50;100.00
70053;BME280;57398;52.032;4.376;2023-05-09T01:00:47;101565.31;;;13.49;100.00
70053;BME280;57398;52.032;4.376;2023-05-09T01:03:37;101562.13;;;13.47;100.00
70053;BME280;57398;52.032;4.376;2023-05-09T01:06:31;101559.94;;;13.44;100.00
70053;BME280;57398;52.032;4.376;2023-05-09T01:09:31;101555.97;;;13.41;100.00
70053;BME280;57398;52.032;4.376;2023-05-09T01:12:29;101553.44;;;13.34;100.00
70053;BME280;57398;52.032;4.376;2023-05-09T01:15:27;101552.06;;;13.32;100.00
70053;BME280;57398;52.032;4.376;2023-05-09T01:18:24;101548.88;;;13.30;100.00
70053;BME280;57398;52.032;4.376;2023-05-09T01:21:20;101543.25;;;13.26;100.00
70053;BME280;57398;52.032;4.376;2023-05-09T01:24:33;101531.22;;;13.25;100.00
70053;BME280;57398;52.032;4.376;2023-05-09T01:27:36;101528.63;;;13.25;100.00
70053;BME280;57398;52.032;4.376;2023-05-09T01:30:32;101519.63;;;13.21;100.00
70053;BME280;57398;52.032;4.376;2023-05-09T01:33:23;101514.22;;;13.23;100.00
70053;BME280;57398;52.032;4.376;2023-05-09T01:36:15;101517.81;;;13.21;100.00
70053;BME280;57398;52.032;4.376;2023-05-09T01:39:04;101510.00;;;13.21;100.00
70053;BME280;57398;52.032;4.376;2023-05-09T01:41:55;101506.81;;;13.19;100.00
70053;BME280;57398;52.032;4.376;2023-05-09T01:44:46;101496.41;;;13.19;100.00
70053;BME280;57398;52.032;4.376;2023-05-09T01:47:36;101494.56;;;13.20;100.00
70053;BME280;57398;52.032;4.376;2023-05-09T01:50:25;101490.16;;;13.20;100.00
70053;BME280;57398;52.032;4.376;2023-05-09T01:53:16;101484.13;;;13.20;100.00
70053;BME280;57398;52.032;4.376;2023-05-09T01:56:07;101477.09;;;13.20;100.00
70053;BME280;57398;52.032;4.376;2023-05-09T01:58:57;101477.91;;;13.21;100.00
70053;BME280;57398;52.032;4.376;2023-05-09T02:01:46;101475.94;;;13.16;100.00
70053;BME280;57398;52.032;4.376;2023-05-09T02:04:36;101478.56;;;13.16;100.00
70053;BME280;57398;52.032;4.376;2023-05-09T02:07:27;101467.78;;;13.13;100.00
70053;BME280;57398;52.032;4.376;2023-05-09T02:10:16;101460.94;;;13.12;100.00
70053;BME280;57398;52.032;4.376;2023-05-09T02:13:06;101463.56;;;13.12;100.00
70053;BME280;57398;52.032;4.376;2023-05-09T02:15:55;101463.56;;;13.12;100.00
70053;BME280;57398;52.032;4.376;2023-05-09T02:18:43;101458.34;;;13.12;100.00
70053;BME280;57398;52.032;4.376;2023-05-09T02:21:34;101454.94;;;13.11;100.00
70053;BME280;57398;52.032;4.376;2023-05-09T02:24:22;101457.34;;;13.13;100.00
70053;BME280;57398;52.032;4.376;2023-05-09T02:27:11;101461.75;;;13.12;100.00
70053;BME280;57398;52.032;4.376;2023-05-09T02:30:03;101456.09;;;13.15;100.00
70053;BME280;57398;52.032;4.376;2023-05-09T02:32:56;101456.31;;;13.14;100.00
70053;BME280;57398;52.032;4.376;2023-05-09T02:35:46;101453.91;;;13.12;100.00
70053;BME280;57398;52.032;4.376;2023-05-09T02:38:36;101452.13;;;13.13;100.00
70053;BME280;57398;52.032;4.376;2023-05-09T02:41:25;101451.75;;;13.09;100.00
70053;BME280;57398;52.032;4.376;2023-05-09T02:44:14;101456.19;;;13.09;100.00
70053;BME280;57398;52.032;4.376;2023-05-09T02:47:03;101448.56;;;13.07;100.00
70053;BME280;57398;52.032;4.376;2023-05-09T02:49:52;101454.56;;;13.08;100.00
70053;BME280;57398;52.032;4.376;2023-05-09T02:52:40;101449.00;;;13.04;100.00
70053;BME280;57398;52.032;4.376;2023-05-09T02:55:30;101439.59;;;13.03;100.00
70053;BME280;57398;52.032;4.376;2023-05-09T02:58:18;101438.00;;;13.02;100.00
70053;BME280;57398;52.032;4.376;2023-05-09T03:01:06;101425.53;;;13.04;100.00
70053;BME280;57398;52.032;4.376;2023-05-09T03:03:54;101434.38;;;13.03;100.00
70053;BME280;57398;52.032;4.376;2023-05-09T03:06:43;101437.22;;;13.02;100.00
70053;BME280;57398;52.032;4.376;2023-05-09T03:09:31;101436.97;;;13.03;100.00
70053;BME280;57398;52.032;4.376;2023-05-09T03:12:20;101426.19;;;12.99;100.00
70053;BME280;57398;52.032;4.376;2023-05-09T03:15:09;101413.75;;;13.02;100.00
70053;BME280;57398;52.032;4.376;2023-05-09T03:17:57;101417.72;;;13.04;100.00
70053;BME280;57398;52.032;4.376;2023-05-09T03:20:46;101414.53;;;13.02;100.00
70053;BME280;57398;52.032;4.376;2023-05-09T03:23:34;101408.88;;;13.05;100.00
70053;BME280;57398;52.032;4.376;2023-05-09T03:26:22;101402.06;;;13.04;100.00
70053;BME280;57398;52.032;4.376;2023-05-09T03:29:12;101401.63;;;13.07;100.00
70053;BME280;57398;52.032;4.376;2023-05-09T03:32:00;101397.19;;;13.08;100.00
70053;BME280;57398;52.032;4.376;2023-05-09T03:34:48;101395.41;;;13.08;100.00
70053;BME280;57398;52.032;4.376;2023-05-09T03:37:36;101393.78;;;13.07;100.00
70053;BME280;57398;52.032;4.376;2023-05-09T03:40:24;101395.41;;;13.08;100.00
70053;BME280;57398;52.032;4.376;2023-05-09T03:43:13;101383.94;;;13.09;100.00
70053;BME280;57398;52.032;4.376;2023-05-09T03:46:02;101389.94;;;13.10;100.00
70053;BME280;57398;52.032;4.376;2023-05-09T03:48:50;101382.94;;;13.10;100.00
70053;BME280;57398;52.032;4.376;2023-05-09T03:51:39;101372.50;;;13.10;100.00
70053;BME280;57398;52.032;4.376;2023-05-09T03:54:28;101372.50;;;13.10;100.00
70053;BME280;57398;52.032;4.376;2023-05-09T03:57:16;101364.69;;;13.10;100.00
70053;BME280;57398;52.032;4.376;2023-05-09T04:00:06;101365.47;;;13.11;100.00
70053;BME280;57398;52.032;4.376;2023-05-09T04:02:57;101368.06;;;13.11;100.00
70053;BME280;57398;52.032;4.376;2023-05-09T04:05:45;101366.25;;;13.11;100.00
70053;BME280;57398;52.032;4.376;2023-05-09T04:08:33;101360.25;;;13.11;100.00
70053;BME280;57398;52.032;4.376;2023-05-09T04:11:21;101352.44;;;13.11;100.00
70053;BME280;57398;52.032;4.376;2023-05-09T04:14:09;101358.22;;;13.13;100.00
70053;BME280;57398;52.032;4.376;2023-05-09T04:16:57;101350.97;;;13.15;100.00
70053;BME280;57398;52.032;4.376;2023-05-09T04:19:47;101351.75;;;13.15;100.00
70053;BME280;57398;52.032;4.376;2023-05-09T04:22:35;101350.53;;;13.18;100.00
70053;BME280;57398;52.032;4.376;2023-05-09T04:25:24;101357.78;;;13.16;100.00
70053;BME280;57398;52.032;4.376;2023-05-09T04:28:12;101360.16;;;13.17;100.00
70053;BME280;57398;52.032;4.376;2023-05-09T04:31:00;101362.63;;;13.12;100.00
70053;BME280;57398;52.032;4.376;2023-05-09T04:33:48;101366.34;;;13.05;100.00
70053;BME280;57398;52.032;4.376;2023-05-09T04:36:38;101367.59;;;13.02;100.00
70053;BME280;57398;52.032;4.376;2023-05-09T04:39:26;101371.06;;;12.96;100.00
70053;BME280;57398;52.032;4.376;2023-05-09T04:42:16;101372.56;;;12.92;100.00
70053;BME280;57398;52.032;4.376;2023-05-09T04:45:04;101367.09;;;12.93;100.00
70053;BME280;57398;52.032;4.376;2023-05-09T04:47:52;101360.50;;;12.91;100.00
70053;BME280;57398;52.032;4.376;2023-05-09T04:50:41;101351.31;;;12.88;100.00
70053;BME280;57398;52.032;4.376;2023-05-09T04:53:30;101340.31;;;12.86;100.00
70053;BME280;57398;52.032;4.376;2023-05-09T04:56:19;101329.31;;;12.84;100.00
70053;BME280;57398;52.032;4.376;2023-05-09T04:59:08;101328.84;;;12.87;100.00
70053;BME280;57398;52.032;4.376;2023-05-09T05:01:56;101327.28;;;12.86;100.00
70053;BME280;57398;52.032;4.376;2023-05-09T05:04:44;101319.81;;;12.90;100.00
70053;BME280;57398;52.032;4.376;2023-05-09T05:07:33;101322.44;;;12.90;100.00
70053;BME280;57398;52.032;4.376;2023-05-09T05:10:22;101309.16;;;12.91;100.00
70053;BME280;57398;52.032;4.376;2023-05-09T05:13:11;101314.59;;;12.90;100.00
70053;BME280;57398;52.032;4.376;2023-05-09T05:15:59;101304.38;;;12.88;100.00
70053;BME280;57398;52.032;4.376;2023-05-09T05:18:47;101293.97;;;12.88;100.00
70053;BME280;57398;52.032;4.376;2023-05-09T05:21:35;101286.94;;;12.89;100.00
70053;BME280;57398;52.032;4.376;2023-05-09T05:24:23;101274.91;;;12.88;100.00
70053;BME280;57398;52.032;4.376;2023-05-09T05:27:13;101267.31;;;12.86;100.00
70053;BME280;57398;52.032;4.376;2023-05-09T05:30:01;101268.69;;;12.89;100.00
70053;BME280;57398;52.032;4.376;2023-05-09T05:32:49;101264.25;;;12.89;100.00
70053;BME280;57398;52.032;4.376;2023-05-09T05:35:37;101273.88;;;12.89;100.00
70053;BME280;57398;52.032;4.376;2023-05-09T05:38:25;101267.44;;;12.91;100.00
70053;BME280;57398;52.032;4.376;2023-05-09T05:41:13;101267.00;;;12.94;100.00
70053;BME280;57398;52.032;4.376;2023-05-09T05:44:03;101266.19;;;12.94;100.00
70053;BME280;57398;52.032;4.376;2023-05-09T05:46:51;101248.38;;;12.91;100.00
70053;BME280;57398;52.032;4.376;2023-05-09T05:49:39;101260.53;;;12.97;100.00
70053;BME280;57398;52.032;4.376;2023-05-09T05:52:27;101259.31;;;12.99;100.00
70053;BME280;57398;52.032;4.376;2023-05-09T05:55:15;101245.69;;;12.97;100.00
70053;BME280;57398;52.032;4.376;2023-05-09T05:58:04;101255.34;;;12.97;100.00
70053;BME280;57398;52.032;4.376;2023-05-09T06:00:53;101252.72;;;12.97;100.00
70053;BME280;57398;52.032;4.376;2023-05-09T06:03:41;101241.50;;;12.96;100.00
70053;BME280;57398;52.032;4.376;2023-05-09T06:06:29;101246.06;;;13.01;100.00
70053;BME280;57398;52.032;4.376;2023-05-09T06:09:18;101241.63;;;13.02;100.00
70053;BME280;57398;52.032;4.376;2023-05-09T06:12:06;101243.28;;;12.96;100.00
70053;BME280;57398;52.032;4.376;2023-05-09T06:14:54;101234.00;;;13.00;100.00
70053;BME280;57398;52.032;4.376;2023-05-09T06:17:44;101237.41;;;13.00;100.00
70053;BME280;57398;52.032;4.376;2023-05-09T06:20:32;101231.53;;;13.05;100.00
70053;BME280;57398;52.032;4.376;2023-05-09T06:23:21;101242.41;;;13.02;100.00
70053;BME280;57398;52.032;4.376;2023-05-09T06:26:10;101233.22;;;12.99;100.00
70053;BME280;57398;52.032;4.376;2023-05-09T06:29:00;101241.03;;;12.99;100.00
70053;BME280;57398;52.032;4.376;2023-05-09T06:31:48;101237.28;;;12.95;100.00
70053;BME280;57398;52.032;4.376;2023-05-09T06:34:37;101240.34;;;12.92;100.00
70053;BME280;57398;52.032;4.376;2023-05-09T06:37:31;101226.06;;;12.83;100.00
70053;BME280;57398;52.032;4.376;2023-05-09T06:40:20;101232.06;;;12.95;100.00
70053;BME280;57398;52.032;4.376;2023-05-09T06:43:08;101225.03;;;12.96;100.00
70053;BME280;57398;52.032;4.376;2023-05-09T06:45:57;101227.31;;;12.92;100.00
70053;BME280;57398;52.032;4.376;2023-05-09T06:48:45;101226.06;;;12.95;100.00
70053;BME280;57398;52.032;4.376;2023-05-09T06:51:34;101220.28;;;12.93;100.00
70053;BME280;57398;52.032;4.376;2023-05-09T06:54:23;101224.94;;;12.91;100.00
70053;BME280;57398;52.032;4.376;2023-05-09T06:57:11;101217.00;;;12.86;100.00
70053;BME280;57398;52.032;4.376;2023-05-09T06:59:59;101217.56;;;12.88;100.00
70053;BME280;57398;52.032;4.376;2023-05-09T07:02:48;101210.63;;;12.82;100.00
70053;BME280;57398;52.032;4.376;2023-05-09T07:05:36;101204.50;;;12.76;100.00
70053;BME280;57398;52.032;4.376;2023-05-09T07:08:26;101209.03;;;12.81;100.00
70053;BME280;57398;52.032;4.376;2023-05-09T07:11:14;101205.06;;;12.78;100.00
70053;BME280;57398;52.032;4.376;2023-05-09T07:14:02;101205.63;;;12.80;100.00
70053;BME280;57398;52.032;4.376;2023-05-09T07:16:50;101199.16;;;12.83;100.00
70053;BME280;57398;52.032;4.376;2023-05-09T07:19:39;101193.63;;;12.91;100.00
70053;BME280;57398;52.032;4.376;2023-05-09T07:22:27;101198.63;;;12.92;100.00
70053;BME280;57398;52.032;4.376;2023-05-09T07:25:19;101182.31;;;12.97;100.00
70053;BME280;57398;52.032;4.376;2023-05-09T07:28:07;101189.00;;;12.93;100.00
70053;BME280;57398;52.032;4.376;2023-05-09T07:30:58;101183.00;;;13.04;100.00
70053;BME280;57398;52.032;4.376;2023-05-09T07:33:46;101181.75;;;13.07;100.00
70053;BME280;57398;52.032;4.376;2023-05-09T07:36:34;101190.81;;;13.04;100.00
70053;BME280;57398;52.032;4.376;2023-05-09T07:39:24;101174.28;;;13.22;100.00
70053;BME280;57398;52.032;4.376;2023-05-09T07:42:13;101169.84;;;13.23;100.00
70053;BME280;57398;52.032;4.376;2023-05-09T07:45:02;101171.00;;;13.15;100.00
70053;BME280;57398;52.032;4.376;2023-05-09T07:47:52;101176.88;;;13.10;100.00
70053;BME280;57398;52.032;4.376;2023-05-09T07:50:40;101168.81;;;13.12;100.00
70053;BME280;57398;52.032;4.376;2023-05-09T07:53:28;101156.81;;;13.11;100.00
70053;BME280;57398;52.032;4.376;2023-05-09T07:56:16;101154.78;;;13.13;100.00
70053;BME280;57398;52.032;4.376;2023-05-09T07:59:05;101152.06;;;13.19;100.00
70053;BME280;57398;52.032;4.376;2023-05-09T08:01:54;101145.13;;;13.25;100.00
70053;BME280;57398;52.032;4.376;2023-05-09T08:04:42;101143.56;;;13.36;100.00
70053;BME280;57398;52.032;4.376;2023-05-09T08:07:34;101136.19;;;13.45;100.00
70053;BME280;57398;52.032;4.376;2023-05-09T08:10:23;101124.13;;;13.44;100.00
70053;BME280;57398;52.032;4.376;2023-05-09T08:13:12;101130.25;;;13.37;100.00
70053;BME280;57398;52.032;4.376;2023-05-09T08:16:02;101122.56;;;13.43;100.00
70053;BME280;57398;52.032;4.376;2023-05-09T08:18:50;101119.25;;;13.47;100.00
70053;BME280;57398;52.032;4.376;2023-05-09T08:21:40;101118.66;;;13.57;100.00
70053;BME280;57398;52.032;4.376;2023-05-09T08:24:28;101116.28;;;13.55;100.00
70053;BME280;57398;52.032;4.376;2023-05-09T08:27:17;101111.66;;;13.46;100.00
70053;BME280;57398;52.032;4.376;2023-05-09T08:30:06;101108.00;;;13.58;100.00
70053;BME280;57398;52.032;4.376;2023-05-09T08:32:56;101108.25;;;13.45;100.00
70053;BME280;57398;52.032;4.376;2023-05-09T08:35:44;101100.88;;;13.54;100.00
70053;BME280;57398;52.032;4.376;2023-05-09T08:38:32;101103.69;;;13.52;100.00
70053;BME280;57398;52.032;4.376;2023-05-09T08:41:24;101088.78;;;13.65;100.00
70053;BME280;57398;52.032;4.376;2023-05-09T08:44:13;101099.34;;;13.58;100.00
70053;BME280;57398;52.032;4.376;2023-05-09T08:47:03;101095.41;;;13.55;100.00
70053;BME280;57398;52.032;4.376;2023-05-09T08:49:52;101088.34;;;13.68;100.00
70053;BME280;57398;52.032;4.376;2023-05-09T08:52:41;101091.97;;;13.67;100.00
70053;BME280;57398;52.032;4.376;2023-05-09T08:55:29;101083.91;;;13.68;100.00
70053;BME280;57398;52.032;4.376;2023-05-09T08:58:19;101086.13;;;13.76;100.00
70053;BME280;57398;52.032;4.376;2023-05-09T09:01:09;101092.16;;;13.77;100.00
70053;BME280;57398;52.032;4.376;2023-05-09T09:03:59;101088.44;;;13.73;100.00
70053;BME280;57398;52.032;4.376;2023-05-09T09:06:49;101084.22;;;13.72;100.00
70053;BME280;57398;52.032;4.376;2023-05-09T09:09:43;101078.91;;;13.67;100.00
70053;BME280;57398;52.032;4.376;2023-05-09T09:12:32;101082.91;;;13.57;100.00
70053;BME280;57398;52.032;4.376;2023-05-09T09:15:21;101076.13;;;13.56;100.00
70053;BME280;57398;52.032;4.376;2023-05-09T09:18:21;101072.94;;;13.54;100.00
70053;BME280;57398;52.032;4.376;2023-05-09T09:21:11;101072.00;;;13.60;100.00
70053;BME280;57398;52.032;4.376;2023-05-09T09:24:01;101076.69;;;13.47;100.00
70053;BME280;57398;52.032;4.376;2023-05-09T09:26:50;101069.78;;;13.52;100.00
70053;BME280;57398;52.032;4.376;2023-05-09T09:29:38;101059.81;;;13.49;100.00
70053;BME280;57398;52.032;4.376;2023-05-09T09:32:31;101073.88;;;13.48;100.00
70053;BME280;57398;52.032;4.376;2023-05-09T09:35:20;101054.59;;;13.49;100.00
70053;BME280;57398;52.032;4.376;2023-05-09T09:38:10;101058.53;;;13.52;100.00
70053;BME280;57398;52.032;4.376;2023-05-09T09:40:59;101061.25;;;13.57;100.00
70053;BME280;57398;52.032;4.376;2023-05-09T09:43:47;101054.59;;;13.49;100.00
70053;BME280;57398;52.032;4.376;2023-05-09T09:46:43;101052.84;;;13.55;100.00
70053;BME280;57398;52.032;4.376;2023-05-09T09:49:32;101058.94;;;13.60;100.00
70053;BME280;57398;52.032;4.376;2023-05-09T09:52:22;101049.53;;;13.59;100.00
70053;BME280;57398;52.032;4.376;2023-05-09T09:55:11;101054.19;;;13.57;100.00
70053;BME280;57398;52.032;4.376;2023-05-09T09:58:00;101050.09;;;13.61;100.00
70053;BME280;57398;52.032;4.376;2023-05-09T10:01:03;101047.50;;;13.61;100.00
70053;BME280;57398;52.032;4.376;2023-05-09T10:03:51;101041.16;;;13.57;100.00
70053;BME280;57398;52.032;4.376;2023-05-09T10:06:50;101042.75;;;13.58;100.00
70053;BME280;57398;52.032;4.376;2023-05-09T10:09:38;101042.06;;;13.63;100.00
70053;BME280;57398;52.032;4.376;2023-05-09T10:12:26;101035.78;;;13.64;100.00
70053;BME280;57398;52.032;4.376;2023-05-09T10:15:18;101046.22;;;13.64;100.00
70053;BME280;57398;52.032;4.376;2023-05-09T10:18:08;101042.06;;;13.63;100.00
70053;BME280;57398;52.032;4.376;2023-05-09T10:20:57;101043.97;;;13.68;100.00
70053;BME280;57398;52.032;4.376;2023-05-09T10:23:49;101048.47;;;13.72;100.00
70053;BME280;57398;52.032;4.376;2023-05-09T10:26:40;101035.19;;;13.74;100.00
70053;BME280;57398;52.032;4.376;2023-05-09T10:29:34;101038.97;;;13.66;100.00
70053;BME280;57398;52.032;4.376;2023-05-09T10:32:26;101029.41;;;13.72;100.00
70053;BME280;57398;52.032;4.376;2023-05-09T10:35:19;101038.25;;;13.71;100.00
70053;BME280;57398;52.032;4.376;2023-05-09T10:38:09;101042.22;;;13.73;100.00
70053;BME280;57398;52.032;4.376;2023-05-09T10:40:58;101089.91;;;13.69;100.00
70053;BME280;57398;52.032;4.376;2023-05-09T10:43:47;101081.28;;;13.68;100.00
70053;BME280;57398;52.032;4.376;2023-05-09T10:46:35;101079.13;;;13.77;100.00
70053;BME280;57398;52.032;4.376;2023-05-09T10:49:25;101081.72;;;13.77;100.00
70053;BME280;57398;52.032;4.376;2023-05-09T10:52:13;101074.13;;;13.75;100.00
70053;BME280;57398;52.032;4.376;2023-05-09T10:55:04;101076.72;;;13.75;100.00
70053;BME280;57398;52.032;4.376;2023-05-09T10:57:52;101079.75;;;13.84;100.00
70053;BME280;57398;52.032;4.376;2023-05-09T11:00:41;101080.88;;;13.88;100.00
70053;BME280;57398;52.032;4.376;2023-05-09T11:03:51;101077.06;;;13.79;100.00
70053;BME280;57398;52.032;4.376;2023-05-09T11:06:44;101104.47;;;13.93;100.00
70053;BME280;57398;52.032;4.376;2023-05-09T11:09:35;101117.47;;;14.05;100.00
70053;BME280;57398;52.032;4.376;2023-05-09T11:12:24;101116.22;;;14.08;100.00
70053;BME280;57398;52.032;4.376;2023-05-09T11:15:13;101114.03;;;14.16;100.00
70053;BME280;57398;52.032;4.376;2023-05-09T11:18:05;101106.59;;;14.25;100.00
70053;BME280;57398;52.032;4.376;2023-05-09T11:20:54;101118.03;;;14.07;100.00
70053;BME280;57398;52.032;4.376;2023-05-09T11:23:43;101111.97;;;13.90;100.00
70053;BME280;57398;52.032;4.376;2023-05-09T11:26:31;101108.56;;;13.89;100.00
70053;BME280;57398;52.032;4.376;2023-05-09T11:29:19;101112.41;;;13.98;100.00
70053;BME280;57398;52.032;4.376;2023-05-09T11:32:13;101107.59;;;14.07;100.00
70053;BME280;57398;52.032;4.376;2023-05-09T11:35:05;101105.34;;;13.99;100.00
70053;BME280;57398;52.032;4.376;2023-05-09T11:37:59;101112.47;;;14.03;100.00
70053;BME280;57398;52.032;4.376;2023-05-09T11:40:50;101121.00;;;13.99;100.00
70053;BME280;57398;52.032;4.376;2023-05-09T11:43:39;101123.25;;;14.07;100.00
70053;BME280;57398;52.032;4.376;2023-05-09T11:46:27;101111.63;;;14.15;100.00
70053;BME280;57398;52.032;4.376;2023-05-09T11:49:15;101119.63;;;14.08;100.00
70053;BME280;57398;52.032;4.376;2023-05-09T11:52:05;101114.16;;;14.10;100.00
70053;BME280;57398;52.032;4.376;2023-05-09T11:54:53;101114.09;;;14.04;100.00
70053;BME280;57398;52.032;4.376;2023-05-09T11:57:43;101107.91;;;14.11;100.00
70053;BME280;57398;52.032;4.376;2023-05-09T12:00:31;101132.25;;;13.99;100.00
70053;BME280;57398;52.032;4.376;2023-05-09T12:03:19;101399.59;;;14.05;100.00
70053;BME280;57398;52.032;4.376;2023-05-09T12:06:08;101435.47;;;14.21;100.00
70053;BME280;57398;52.032;4.376;2023-05-09T12:08:56;101447.41;;;14.17;100.00
70053;BME280;57398;52.032;4.376;2023-05-09T12:11:47;101453.31;;;14.01;100.00
70053;BME280;57398;52.032;4.376;2023-05-09T12:14:37;101457.75;;;14.00;100.00
70053;BME280;57398;52.032;4.376;2023-05-09T12:17:26;101457.38;;;13.97;100.00
70053;BME280;57398;52.032;4.376;2023-05-09T12:20:14;101461.72;;;14.03;100.00
70053;BME280;57398;52.032;4.376;2023-05-09T12:23:02;101466.56;;;13.99;100.00
70053;BME280;57398;52.032;4.376;2023-05-09T12:25:52;101463.06;;;14.06;100.00
70053;BME280;57398;52.032;4.376;2023-05-09T12:28:41;101461.03;;;14.08;100.00
70053;BME280;57398;52.032;4.376;2023-05-09T12:31:31;101469.91;;;14.07;100.00
70053;BME280;57398;52.032;4.376;2023-05-09T12:34:20;101459.88;;;14.03;100.00
70053;BME280;57398;52.032;4.376;2023-05-09T12:37:13;101466.03;;;14.09;100.00
70053;BME280;57398;52.032;4.376;2023-05-09T12:40:02;101459.66;;;13.93;100.00
70053;BME280;57398;52.032;4.376;2023-05-09T12:42:51;101457.38;;;13.97;100.00
70053;BME280;57398;52.032;4.376;2023-05-09T12:45:42;101456.38;;;13.98;100.00
70053;BME280;57398;52.032;4.376;2023-05-09T12:48:36;101458.19;;;13.97;100.00
70053;BME280;57398;52.032;4.376;2023-05-09T12:51:24;101458.72;;;13.88;100.00
70053;BME280;57398;52.032;4.376;2023-05-09T12:54:12;101461.81;;;13.96;100.00
70053;BME280;57398;52.032;4.376;2023-05-09T12:57:00;101449.88;;;13.89;100.00
70053;BME280;57398;52.032;4.376;2023-05-09T12:59:50;101468.16;;;13.89;100.00
70053;BME280;57398;52.032;4.376;2023-05-09T13:02:39;101462.50;;;13.92;100.00
70053;BME280;57398;52.032;4.376;2023-05-09T13:05:30;101452.41;;;13.95;100.00
70053;BME280;57398;52.032;4.376;2023-05-09T13:08:20;101454.56;;;13.98;100.00
70053;BME280;57398;52.032;4.376;2023-05-09T13:11:09;101449.44;;;14.03;100.00
70053;BME280;57398;52.032;4.376;2023-05-09T13:14:02;101450.69;;;14.13;100.00
70053;BME280;57398;52.032;4.376;2023-05-09T13:16:50;101452.97;;;14.21;100.00
70053;BME280;57398;52.032;4.376;2023-05-09T13:19:39;101444.56;;;14.19;100.00
70053;BME280;57398;52.032;4.376;2023-05-09T13:22:28;101442.19;;;14.17;100.00
70053;BME280;57398;52.032;4.376;2023-05-09T13:25:16;101441.75;;;14.20;100.00
70053;BME280;57398;52.032;4.376;2023-05-09T13:28:06;101440.13;;;14.19;100.00
70053;BME280;57398;52.032;4.376;2023-05-09T13:30:54;101440.81;;;14.27;100.00
70053;BME280;57398;52.032;4.376;2023-05-09T13:33:42;101437.41;;;14.38;100.00
70053;BME280;57398;52.032;4.376;2023-05-09T13:36:30;101439.00;;;14.39;100.00
70053;BME280;57398;52.032;4.376;2023-05-09T13:39:20;101440.81;;;14.38;100.00
70053;BME280;57398;52.032;4.376;2023-05-09T13:42:08;101439.78;;;14.39;100.00
70053;BME280;57398;52.032;4.376;2023-05-09T13:44:56;101435.13;;;14.53;100.00
70053;BME280;57398;52.032;4.376;2023-05-09T13:47:44;101436.84;;;14.36;100.00
70053;BME280;57398;52.032;4.376;2023-05-09T13:50:32;101425.03;;;14.10;100.00
70053;BME280;57398;52.032;4.376;2023-05-09T13:53:20;101429.22;;;14.11;100.00
70053;BME280;57398;52.032;4.376;2023-05-09T13:56:10;101429.38;;;14.16;100.00
70053;BME280;57398;52.032;4.376;2023-05-09T13:58:58;101424.00;;;13.99;100.00
70053;BME280;57398;52.032;4.376;2023-05-09T14:01:46;101425.47;;;13.95;100.00
70053;BME280;57398;52.032;4.376;2023-05-09T14:04:34;101423.78;;;14.00;100.00
70053;BME280;57398;52.032;4.376;2023-05-09T14:07:22;101422.31;;;14.04;100.00
70053;BME280;57398;52.032;4.376;2023-05-09T14:10:10;101419.69;;;14.04;100.00
70053;BME280;57398;52.032;4.376;2023-05-09T14:13:00;101416.41;;;13.97;100.00
70053;BME280;57398;52.032;4.376;2023-05-09T14:15:48;101410.50;;;14.02;100.00
70053;BME280;57398;52.032;4.376;2023-05-09T14:18:36;101409.56;;;14.08;100.00
70053;BME280;57398;52.032;4.376;2023-05-09T14:21:24;101412.53;;;14.12;100.00
70053;BME280;57398;52.032;4.376;2023-05-09T14:24:13;101412.75;;;14.10;100.00
70053;BME280;57398;52.032;4.376;2023-05-09T14:27:02;101405.25;;;13.90;100.00
70053;BME280;57398;52.032;4.376;2023-05-09T14:29:51;101406.84;;;13.91;100.00
70053;BME280;57398;52.032;4.376;2023-05-09T14:32:39;101395.38;;;13.92;100.00
70053;BME280;57398;52.032;4.376;2023-05-09T14:35:27;101395.25;;;13.87;100.00